sensor_id;sensor_type;location;lat;lon;timestamp;pressure;altitude;pressure_sealevel;temperature;humidity
77685;BME280;66844;46.092;18.268;2024-02-26T00:00:06;98468.50;;;8.45;100.00
77685;BME280;66844;46.092;18.268;2024-02-26T00:00:41;98471.06;;;8.47;100.00
77685;BME280;66844;46.092;18.268;2024-02-26T00:01:13;98468.63;;;8.44;100.00
77685;BME280;66844;46.092;18.268;2024-02-26T00:01:45;98469.25;;;8.47;100.00
77685;BME280;66844;46.092;18.268;2024-02-26T00:02:18;98467.75;;;8.43;100.00
77685;BME280;66844;46.092;18.268;2024-02-26T00:02:50;98469.66;;;8.41;100.00
77685;BME280;66844;46.092;18.268;2024-02-26T00:03:22;98470.81;;;8.37;100.00
77685;BME280;66844;46.092;18.268;2024-02-26T00:03:54;98470.34;;;8.31;100.00
77685;BME280;66844;46.092;18.268;2024-02-26T00:04:31;98467.88;;;8.27;100.00
77685;BME280;66844;46.092;18.268;2024-02-26T00:05:06;98471.47;;;8.26;100.00
77685;BME280;66844;46.092;18.268;2024-02-26T00:05:39;98471.97;;;8.33;100.00
77685;BME280;66844;46.092;18.268;2024-02-26T00:06:11;98473.47;;;8.37;100.00
77685;BME280;66844;46.092;18.268;2024-02-26T00:06:43;98467.53;;;8.34;100.00
77685;BME280;66844;46.092;18.268;2024-02-26T00:07:16;98470.91;;;8.36;100.00
77685;BME280;66844;46.092;18.268;2024-02-26T00:07:48;98470.81;;;8.37;100.00
77685;BME280;66844;46.092;18.268;2024-02-26T00:08:20;98474.94;;;8.41;100.00
77685;BME280;66844;46.092;18.268;2024-02-26T00:08:52;98472.28;;;8.41;100.00
77685;BME280;66844;46.092;18.268;2024-02-26T00:09:24;98466.16;;;8.41;100.00
77685;BME280;66844;46.092;18.268;2024-02-26T00:09:56;98472.50;;;8.38;100.00
77685;BME280;66844;46.092;18.268;2024-02-26T00:10:28;98478.00;;;8.35;100.00
77685;BME280;66844;46.092;18.268;2024-02-26T00:11:00;98466.34;;;8.38;100.00
77685;BME280;66844;46.092;18.268;2024-02-26T00:11:32;98476.84;;;8.39;100.00
77685;BME280;66844;46.092;18.268;2024-02-26T00:12:04;98463.69;;;8.38;100.00
77685;BME280;66844;46.092;18.268;2024-02-26T00:12:37;98472.63;;;8.37;100.00
77685;BME280;66844;46.092;18.268;2024-02-26T00:13:11;98462.97;;;8.36;100.00
77685;BME280;66844;46.092;18.268;2024-02-26T00:13:43;98464.75;;;8.35;100.00
77685;BME280;66844;46.092;18.268;2024-02-26T00:14:14;98464.09;;;8.32;100.00
77685;BME280;66844;46.092;18.268;2024-02-26T00:14:46;98463.91;;;8.35;100.00
77685;BME280;66844;46.092;18.268;2024-02-26T00:15:21;98464.75;;;8.35;100.00
77685;BME280;66844;46.092;18.268;2024-02-26T00:15:53;98455.94;;;8.35;100.00
77685;BME280;66844;46.092;18.268;2024-02-26T00:16:25;98462.22;;;8.34;100.00
77685;BME280;66844;46.092;18.268;2024-02-26T00:16:57;98459.66;;;8.32;100.00
77685;BME280;66844;46.092;18.268;2024-02-26T00:17:29;98460.22;;;8.37;100.00
77685;BME280;66844;46.092;18.268;2024-02-26T00:18:01;98456.72;;;8.37;100.00
77685;BME280;66844;46.092;18.268;2024-02-26T00:18:33;98452.81;;;8.42;100.00
77685;BME280;66844;46.092;18.268;2024-02-26T00:19:06;98462.66;;;8.40;100.00
77685;BME280;66844;46.092;18.268;2024-02-26T00:19:38;98463.41;;;8.42;100.00
77685;BME280;66844;46.092;18.268;2024-02-26T00:20:10;98461.69;;;8.41;100.00
77685;BME280;66844;46.092;18.268;2024-02-26T00:20:42;98453.66;;;8.43;100.00
77685;BME280;66844;46.092;18.268;2024-02-26T00:21:15;98462.38;;;8.45;100.00
77685;BME280;66844;46.092;18.268;2024-02-26T00:21:47;98464.16;;;8.44;100.00
77685;BME280;66844;46.092;18.268;2024-02-26T00:22:19;98465.84;;;8.45;100.00
77685;BME280;66844;46.092;18.268;2024-02-26T00:22:51;98467.75;;;8.43;100.00
77685;BME280;66844;46.092;18.268;2024-02-26T00:23:23;98457.91;;;8.45;100.00
77685;BME280;66844;46.092;18.268;2024-02-26T00:23:55;98452.50;;;8.47;100.00
77685;BME280;66844;46.092;18.268;2024-02-26T00:24:27;98453.16;;;8.50;100.00
77685;BME280;66844;46.092;18.268;2024-02-26T00:24:59;98447.94;;;8.49;100.00
77685;BME280;66844;46.092;18.268;2024-02-26T00:25:31;98449.84;;;8.47;100.00
77685;BME280;66844;46.092;18.268;2024-02-26T00:26:03;98452.59;;;8.45;100.00
77685;BME280;66844;46.092;18.268;2024-02-26T00:26:35;98454.22;;;8.48;100.00
77685;BME280;66844;46.092;18.268;2024-02-26T00:27:07;98451.66;;;8.46;100.00
77685;BME280;66844;46.092;18.268;2024-02-26T00:27:39;98454.31;;;8.46;100.00
77685;BME280;66844;46.092;18.268;2024-02-26T00:28:13;98451.22;;;8.40;100.00
77685;BME280;66844;46.092;18.268;2024-02-26T00:28:45;98452.34;;;8.36;100.00
77685;BME280;66844;46.092;18.268;2024-02-26T00:29:17;98448.78;;;8.37;100.00
77685;BME280;66844;46.092;18.268;2024-02-26T00:29:49;98449.78;;;8.34;100.00
77685;BME280;66844;46.092;18.268;2024-02-26T00:30:21;98453.41;;;8.33;100.00
77685;BME280;66844;46.092;18.268;2024-02-26T00:30:54;98451.78;;;8.31;100.00
77685;BME280;66844;46.092;18.268;2024-02-26T00:31:27;98452.81;;;8.28;100.00
77685;BME280;66844;46.092;18.268;2024-02-26T00:31:59;98450.94;;;8.30;100.00
77685;BME280;66844;46.092;18.268;2024-02-26T00:32:31;98451.72;;;8.32;100.00
77685;BME280;66844;46.092;18.268;2024-02-26T00:33:03;98451.50;;;8.35;100.00
77685;BME280;66844;46.092;18.268;2024-02-26T00:33:36;98452.34;;;8.36;100.00
77685;BME280;66844;46.092;18.268;2024-02-26T00:34:08;98450.13;;;8.30;100.00
77685;BME280;66844;46.092;18.268;2024-02-26T00:34:40;98443.66;;;8.34;100.00
77685;BME280;66844;46.092;18.268;2024-02-26T00:35:15;98441.66;;;8.37;100.00
77685;BME280;66844;46.092;18.268;2024-02-26T00:35:47;98441.66;;;8.37;100.00
77685;BME280;66844;46.092;18.268;2024-02-26T00:36:19;98447.78;;;8.38;100.00
77685;BME280;66844;46.092;18.268;2024-02-26T00:36:51;98446.13;;;8.37;100.00
77685;BME280;66844;46.092;18.268;2024-02-26T00:37:23;98439.97;;;8.36;100.00
77685;BME280;66844;46.092;18.268;2024-02-26T00:37:55;98438.38;;;8.34;100.00
77685;BME280;66844;46.092;18.268;2024-02-26T00:38:27;98445.34;;;8.35;100.00
77685;BME280;66844;46.092;18.268;2024-02-26T00:38:59;98436.47;;;8.36;100.00
77685;BME280;66844;46.092;18.268;2024-02-26T00:39:31;98446.22;;;8.35;100.00
77685;BME280;66844;46.092;18.268;2024-02-26T00:40:03;98448.84;;;8.35;100.00
77685;BME280;66844;46.092;18.268;2024-02-26T00:40:35;98434.66;;;8.36;100.00
77685;BME280;66844;46.092;18.268;2024-02-26T00:41:07;98434.47;;;8.39;100.00
77685;BME280;66844;46.092;18.268;2024-02-26T00:41:40;98435.41;;;8.38;100.00
77685;BME280;66844;46.092;18.268;2024-02-26T00:42:13;98426.91;;;8.33;100.00
77685;BME280;66844;46.092;18.268;2024-02-26T00:42:45;98431.16;;;8.36;100.00
77685;BME280;66844;46.092;18.268;2024-02-26T00:43:18;98433.81;;;8.36;100.00
77685;BME280;66844;46.092;18.268;2024-02-26T00:43:49;98432.75;;;8.38;100.00
77685;BME280;66844;46.092;18.268;2024-02-26T00:44:22;98436.16;;;8.40;100.00
77685;BME280;66844;46.092;18.268;2024-02-26T00:44:53;98423.00;;;8.39;100.00
77685;BME280;66844;46.092;18.268;2024-02-26T00:45:27;98426.59;;;8.38;100.00
77685;BME280;66844;46.092;18.268;2024-02-26T00:45:59;98425.78;;;8.37;100.00
77685;BME280;66844;46.092;18.268;2024-02-26T00:46:32;98423.94;;;8.38;100.00
77685;BME280;66844;46.092;18.268;2024-02-26T00:47:04;98424.78;;;8.38;100.00
77685;BME280;66844;46.092;18.268;2024-02-26T00:47:36;98425.56;;;8.40;100.00
77685;BME280;66844;46.092;18.268;2024-02-26T00:48:08;98433.50;;;8.40;100.00
77685;BME280;66844;46.092;18.268;2024-02-26T00:48:40;98430.88;;;8.40;100.00
77685;BME280;66844;46.092;18.268;2024-02-26T00:49:12;98425.56;;;8.40;100.00
77685;BME280;66844;46.092;18.268;2024-02-26T00:49:44;98430.75;;;8.42;100.00
77685;BME280;66844;46.092;18.268;2024-02-26T00:50:17;98420.16;;;8.42;100.00
77685;BME280;66844;46.092;18.268;2024-02-26T00:50:49;98429.81;;;8.43;100.00
77685;BME280;66844;46.092;18.268;2024-02-26T00:51:21;98433.41;;;8.42;100.00
77685;BME280;66844;46.092;18.268;2024-02-26T00:51:56;98425.66;;;8.39;100.00
77685;BME280;66844;46.092;18.268;2024-02-26T00:52:28;98425.78;;;8.37;100.00
77685;BME280;66844;46.092;18.268;2024-02-26T00:53:01;98428.50;;;8.36;100.00
77685;BME280;66844;46.092;18.268;2024-02-26T00:53:33;98425.00;;;8.35;100.00
77685;BME280;66844;46.092;18.268;2024-02-26T00:54:05;98432.09;;;8.35;100.00
77685;BME280;66844;46.092;18.268;2024-02-26T00:54:37;98429.25;;;8.38;100.00
77685;BME280;66844;46.092;18.268;2024-02-26T00:55:09;98422.16;;;8.38;100.00
77685;BME280;66844;46.092;18.268;2024-02-26T00:55:41;98421.22;;;8.39;100.00
77685;BME280;66844;46.092;18.268;2024-02-26T00:56:13;98426.31;;;8.42;100.00
77685;BME280;66844;46.092;18.268;2024-02-26T00:56:45;98421.84;;;8.43;100.00
77685;BME280;66844;46.092;18.268;2024-02-26T00:57:17;98427.06;;;8.44;100.00
77685;BME280;66844;46.092;18.268;2024-02-26T00:57:48;98419.84;;;8.46;100.00
77685;BME280;66844;46.092;18.268;2024-02-26T00:58:20;98424.28;;;8.46;100.00
77685;BME280;66844;46.092;18.268;2024-02-26T00:58:52;98419.13;;;8.44;100.00
77685;BME280;66844;46.092;18.268;2024-02-26T00:59:24;98424.41;;;8.44;100.00
77685;BME280;66844;46.092;18.268;2024-02-26T00:59:56;98420.06;;;8.43;100.00
77685;BME280;66844;46.092;18.268;2024-02-26T01:00:28;98419.19;;;8.43;100.00
77685;BME280;66844;46.092;18.268;2024-02-26T01:01:00;98416.63;;;8.41;100.00
77685;BME280;66844;46.092;18.268;2024-02-26T01:01:32;98409.47;;;8.43;100.00
77685;BME280;66844;46.092;18.268;2024-02-26T01:02:04;98412.97;;;8.44;100.00
77685;BME280;66844;46.092;18.268;2024-02-26T01:02:39;98416.47;;;8.44;100.00
77685;BME280;66844;46.092;18.268;2024-02-26T01:03:11;98414.47;;;8.48;100.00
77685;BME280;66844;46.092;18.268;2024-02-26T01:03:43;98410.97;;;8.47;100.00
77685;BME280;66844;46.092;18.268;2024-02-26T01:04:15;98417.31;;;8.45;100.00
77685;BME280;66844;46.092;18.268;2024-02-26T01:04:47;98412.00;;;8.45;100.00
77685;BME280;66844;46.092;18.268;2024-02-26T01:05:19;98417.31;;;8.45;100.00
77685;BME280;66844;46.092;18.268;2024-02-26T01:05:51;98413.91;;;8.43;100.00
77685;BME280;66844;46.092;18.268;2024-02-26T01:06:28;98427.06;;;8.44;100.00
77685;BME280;66844;46.092;18.268;2024-02-26T01:07:00;98419.00;;;8.46;100.00
77685;BME280;66844;46.092;18.268;2024-02-26T01:07:32;98423.44;;;8.45;100.00
77685;BME280;66844;46.092;18.268;2024-02-26T01:08:08;98423.44;;;8.45;100.00
77685;BME280;66844;46.092;18.268;2024-02-26T01:08:40;98418.34;;;8.42;100.00
77685;BME280;66844;46.092;18.268;2024-02-26T01:09:12;98421.75;;;8.44;100.00
77685;BME280;66844;46.092;18.268;2024-02-26T01:09:44;98425.34;;;8.43;100.00
77685;BME280;66844;46.092;18.268;2024-02-26T01:10:16;98421.00;;;8.42;100.00
77685;BME280;66844;46.092;18.268;2024-02-26T01:10:48;98421.84;;;8.43;100.00
77685;BME280;66844;46.092;18.268;2024-02-26T01:11:20;98424.50;;;8.43;100.00
77685;BME280;66844;46.092;18.268;2024-02-26T01:11:52;98421.84;;;8.43;100.00
77685;BME280;66844;46.092;18.268;2024-02-26T01:12:24;98420.78;;;8.45;100.00
77685;BME280;66844;46.092;18.268;2024-02-26T01:12:56;98422.63;;;8.45;100.00
77685;BME280;66844;46.092;18.268;2024-02-26T01:13:29;98422.63;;;8.45;100.00
77685;BME280;66844;46.092;18.268;2024-02-26T01:14:01;98425.16;;;8.46;100.00
77685;BME280;66844;46.092;18.268;2024-02-26T01:14:33;98423.44;;;8.45;100.00
77685;BME280;66844;46.092;18.268;2024-02-26T01:15:05;98418.47;;;8.41;100.00
77685;BME280;66844;46.092;18.268;2024-02-26T01:15:38;98425.34;;;8.43;100.00
77685;BME280;66844;46.092;18.268;2024-02-26T01:16:10;98419.28;;;8.41;100.00
77685;BME280;66844;46.092;18.268;2024-02-26T01:16:42;98421.00;;;8.42;100.00
77685;BME280;66844;46.092;18.268;2024-02-26T01:17:14;98424.50;;;8.43;100.00
77685;BME280;66844;46.092;18.268;2024-02-26T01:17:46;98422.06;;;8.40;100.00
77685;BME280;66844;46.092;18.268;2024-02-26T01:18:18;98427.38;;;8.40;100.00
77685;BME280;66844;46.092;18.268;2024-02-26T01:18:50;98417.81;;;8.37;100.00
77685;BME280;66844;46.092;18.268;2024-02-26T01:19:23;98427.44;;;8.38;100.00
77685;BME280;66844;46.092;18.268;2024-02-26T01:19:55;98421.00;;;8.42;100.00
77685;BME280;66844;46.092;18.268;2024-02-26T01:20:27;98425.56;;;8.40;100.00
77685;BME280;66844;46.092;18.268;2024-02-26T01:20:59;98420.25;;;8.40;100.00
77685;BME280;66844;46.092;18.268;2024-02-26T01:21:31;98423.78;;;8.41;100.00
77685;BME280;66844;46.092;18.268;2024-02-26T01:22:03;98423.78;;;8.41;100.00
77685;BME280;66844;46.092;18.268;2024-02-26T01:22:35;98423.44;;;8.45;100.00
77685;BME280;66844;46.092;18.268;2024-02-26T01:23:07;98424.50;;;8.43;100.00
77685;BME280;66844;46.092;18.268;2024-02-26T01:23:39;98421.00;;;8.42;100.00
77685;BME280;66844;46.092;18.268;2024-02-26T01:24:11;98418.56;;;8.39;100.00
77685;BME280;66844;46.092;18.268;2024-02-26T01:24:43;98420.25;;;8.40;100.00
77685;BME280;66844;46.092;18.268;2024-02-26T01:25:15;98417.69;;;8.39;100.00
77685;BME280;66844;46.092;18.268;2024-02-26T01:25:47;98419.28;;;8.41;100.00
77685;BME280;66844;46.092;18.268;2024-02-26T01:26:20;98421.00;;;8.42;100.00
77685;BME280;66844;46.092;18.268;2024-02-26T01:26:53;98416.56;;;8.43;100.00
77685;BME280;66844;46.092;18.268;2024-02-26T01:27:25;98417.31;;;8.45;100.00
77685;BME280;66844;46.092;18.268;2024-02-26T01:27:59;98418.34;;;8.42;100.00
77685;BME280;66844;46.092;18.268;2024-02-26T01:28:31;98414.97;;;8.40;100.00
77685;BME280;66844;46.092;18.268;2024-02-26T01:29:03;98418.34;;;8.42;100.00
77685;BME280;66844;46.092;18.268;2024-02-26T01:29:34;98414.00;;;8.41;100.00
77685;BME280;66844;46.092;18.268;2024-02-26T01:30:07;98414.75;;;8.43;100.00
77685;BME280;66844;46.092;18.268;2024-02-26T01:30:39;98414.75;;;8.43;100.00
77685;BME280;66844;46.092;18.268;2024-02-26T01:31:11;98413.81;;;8.44;100.00
77685;BME280;66844;46.092;18.268;2024-02-26T01:31:43;98415.50;;;8.45;100.00
77685;BME280;66844;46.092;18.268;2024-02-26T01:32:15;98414.09;;;8.40;100.00
77685;BME280;66844;46.092;18.268;2024-02-26T01:32:47;98412.41;;;8.39;100.00
77685;BME280;66844;46.092;18.268;2024-02-26T01:33:19;98413.06;;;8.42;100.00
77685;BME280;66844;46.092;18.268;2024-02-26T01:33:51;98413.16;;;8.41;100.00
77685;BME280;66844;46.092;18.268;2024-02-26T01:34:24;98413.91;;;8.43;100.00
77685;BME280;66844;46.092;18.268;2024-02-26T01:34:57;98407.66;;;8.44;100.00
77685;BME280;66844;46.092;18.268;2024-02-26T01:35:29;98414.66;;;8.45;100.00
77685;BME280;66844;46.092;18.268;2024-02-26T01:36:01;98410.31;;;8.44;100.00
77685;BME280;66844;46.092;18.268;2024-02-26T01:36:33;98410.19;;;8.45;100.00
77685;BME280;66844;46.092;18.268;2024-02-26T01:37:06;98412.97;;;8.44;100.00
77685;BME280;66844;46.092;18.268;2024-02-26T01:37:38;98406.59;;;8.46;100.00
77685;BME280;66844;46.092;18.268;2024-02-26T01:38:10;98404.06;;;8.45;100.00
77685;BME280;66844;46.092;18.268;2024-02-26T01:38:42;98407.66;;;8.44;100.00
77685;BME280;66844;46.092;18.268;2024-02-26T01:39:14;98411.03;;;8.46;100.00
77685;BME280;66844;46.092;18.268;2024-02-26T01:39:46;98406.59;;;8.46;100.00
77685;BME280;66844;46.092;18.268;2024-02-26T01:40:18;98405.88;;;8.44;100.00
77685;BME280;66844;46.092;18.268;2024-02-26T01:40:51;98404.88;;;8.45;100.00
77685;BME280;66844;46.092;18.268;2024-02-26T01:41:23;98405.88;;;8.44;100.00
77685;BME280;66844;46.092;18.268;2024-02-26T01:41:55;98404.06;;;8.45;100.00
77685;BME280;66844;46.092;18.268;2024-02-26T01:42:27;98401.41;;;8.45;100.00
77685;BME280;66844;46.092;18.268;2024-02-26T01:43:01;98402.25;;;8.45;100.00
77685;BME280;66844;46.092;18.268;2024-02-26T01:43:33;98410.97;;;8.47;100.00
77685;BME280;66844;46.092;18.268;2024-02-26T01:44:06;98409.25;;;8.46;100.00
77685;BME280;66844;46.092;18.268;2024-02-26T01:44:38;98399.72;;;8.44;100.00
77685;BME280;66844;46.092;18.268;2024-02-26T01:45:15;98399.72;;;8.44;100.00
77685;BME280;66844;46.092;18.268;2024-02-26T01:45:54;98403.09;;;8.46;100.00
77685;BME280;66844;46.092;18.268;2024-02-26T01:46:26;98397.78;;;8.46;100.00
77685;BME280;66844;46.092;18.268;2024-02-26T01:47:00;98397.78;;;8.46;100.00
77685;BME280;66844;46.092;18.268;2024-02-26T01:47:33;98395.34;;;8.43;100.00
77685;BME280;66844;46.092;18.268;2024-02-26T01:48:06;98390.25;;;8.40;100.00
77685;BME280;66844;46.092;18.268;2024-02-26T01:48:42;98402.56;;;8.41;100.00
77685;BME280;66844;46.092;18.268;2024-02-26T01:49:15;98400.44;;;8.46;100.00
77685;BME280;66844;46.092;18.268;2024-02-26T01:49:48;98397.59;;;8.49;100.00
77685;BME280;66844;46.092;18.268;2024-02-26T01:50:21;98393.25;;;8.48;100.00
77685;BME280;66844;46.092;18.268;2024-02-26T01:50:54;98397.69;;;8.47;100.00
77685;BME280;66844;46.092;18.268;2024-02-26T01:51:26;98395.13;;;8.46;100.00
77685;BME280;66844;46.092;18.268;2024-02-26T01:51:59;98399.59;;;8.45;100.00
77685;BME280;66844;46.092;18.268;2024-02-26T01:52:31;98396.22;;;8.43;100.00
77685;BME280;66844;46.092;18.268;2024-02-26T01:53:04;98399.06;;;8.40;100.00
77685;BME280;66844;46.092;18.268;2024-02-26T01:53:37;98392.69;;;8.43;100.00
77685;BME280;66844;46.092;18.268;2024-02-26T01:54:09;98397.91;;;8.44;100.00
77685;BME280;66844;46.092;18.268;2024-02-26T01:54:42;98394.19;;;8.47;100.00
77685;BME280;66844;46.092;18.268;2024-02-26T01:55:20;98400.34;;;8.47;100.00
77685;BME280;66844;46.092;18.268;2024-02-26T01:55:54;98389.75;;;8.47;100.00
77685;BME280;66844;46.092;18.268;2024-02-26T01:56:27;98401.09;;;8.49;100.00
77685;BME280;66844;46.092;18.268;2024-02-26T01:57:04;98401.09;;;8.49;100.00
77685;BME280;66844;46.092;18.268;2024-02-26T01:57:36;98403.00;;;8.47;100.00
77685;BME280;66844;46.092;18.268;2024-02-26T01:58:09;98399.59;;;8.45;100.00
77685;BME280;66844;46.092;18.268;2024-02-26T01:58:41;98393.47;;;8.45;100.00
77685;BME280;66844;46.092;18.268;2024-02-26T01:59:13;98396.84;;;8.47;100.00
77685;BME280;66844;46.092;18.268;2024-02-26T01:59:45;98393.34;;;8.46;100.00
77685;BME280;66844;46.092;18.268;2024-02-26T02:00:18;98396.63;;;8.50;100.00
77685;BME280;66844;46.092;18.268;2024-02-26T02:00:51;98391.25;;;8.51;100.00
77685;BME280;66844;46.092;18.268;2024-02-26T02:01:25;98387.84;;;8.49;100.00
77685;BME280;66844;46.092;18.268;2024-02-26T02:02:01;98391.25;;;8.51;100.00
77685;BME280;66844;46.092;18.268;2024-02-26T02:02:35;98398.34;;;8.51;100.00
77685;BME280;66844;46.092;18.268;2024-02-26T02:03:07;98389.63;;;8.49;100.00
77685;BME280;66844;46.092;18.268;2024-02-26T02:03:39;98398.56;;;8.48;100.00
77685;BME280;66844;46.092;18.268;2024-02-26T02:04:14;98393.13;;;8.49;100.00
77685;BME280;66844;46.092;18.268;2024-02-26T02:04:47;98392.41;;;8.47;100.00
77685;BME280;66844;46.092;18.268;2024-02-26T02:05:20;98387.97;;;8.48;100.00
77685;BME280;66844;46.092;18.268;2024-02-26T02:05:52;98391.34;;;8.50;100.00
77685;BME280;66844;46.092;18.268;2024-02-26T02:06:25;98391.34;;;8.50;100.00
77685;BME280;66844;46.092;18.268;2024-02-26T02:07:00;98386.88;;;8.50;100.00
77685;BME280;66844;46.092;18.268;2024-02-26T02:07:32;98380.72;;;8.50;100.00
77685;BME280;66844;46.092;18.268;2024-02-26T02:08:04;98384.44;;;8.47;100.00
77685;BME280;66844;46.092;18.268;2024-02-26T02:08:38;98380.94;;;8.47;100.00
77685;BME280;66844;46.092;18.268;2024-02-26T02:09:11;98381.88;;;8.46;100.00
77685;BME280;66844;46.092;18.268;2024-02-26T02:09:43;98376.50;;;8.47;100.00
77685;BME280;66844;46.092;18.268;2024-02-26T02:10:15;98379.03;;;8.49;100.00
77685;BME280;66844;46.092;18.268;2024-02-26T02:10:50;98375.66;;;8.47;100.00
77685;BME280;66844;46.092;18.268;2024-02-26T02:11:22;98381.69;;;8.49;100.00
77685;BME280;66844;46.092;18.268;2024-02-26T02:11:54;98386.16;;;8.48;100.00
77685;BME280;66844;46.092;18.268;2024-02-26T02:12:27;98380.09;;;8.46;100.00
77685;BME280;66844;46.092;18.268;2024-02-26T02:12:59;98379.03;;;8.49;100.00
77685;BME280;66844;46.092;18.268;2024-02-26T02:13:31;98376.50;;;8.47;100.00
77685;BME280;66844;46.092;18.268;2024-02-26T02:14:03;98377.56;;;8.45;100.00
77685;BME280;66844;46.092;18.268;2024-02-26T02:14:35;98379.25;;;8.46;100.00
77685;BME280;66844;46.092;18.268;2024-02-26T02:15:07;98379.25;;;8.46;100.00
77685;BME280;66844;46.092;18.268;2024-02-26T02:15:40;98374.91;;;8.45;100.00
77685;BME280;66844;46.092;18.268;2024-02-26T02:16:12;98375.75;;;8.45;100.00
77685;BME280;66844;46.092;18.268;2024-02-26T02:16:44;98372.13;;;8.46;100.00
77685;BME280;66844;46.092;18.268;2024-02-26T02:17:16;98378.28;;;8.47;100.00
77685;BME280;66844;46.092;18.268;2024-02-26T02:17:48;98374.78;;;8.46;100.00
77685;BME280;66844;46.092;18.268;2024-02-26T02:18:20;98375.66;;;8.47;100.00
77685;BME280;66844;46.092;18.268;2024-02-26T02:18:52;98377.34;;;8.48;100.00
77685;BME280;66844;46.092;18.268;2024-02-26T02:19:24;98373.00;;;8.47;100.00
77685;BME280;66844;46.092;18.268;2024-02-26T02:19:56;98372.25;;;8.45;100.00
77685;BME280;66844;46.092;18.268;2024-02-26T02:20:32;98370.34;;;8.47;100.00
77685;BME280;66844;46.092;18.268;2024-02-26T02:21:05;98375.75;;;8.45;100.00
77685;BME280;66844;46.092;18.268;2024-02-26T02:21:37;98369.63;;;8.45;100.00
77685;BME280;66844;46.092;18.268;2024-02-26T02:22:09;98367.91;;;8.44;100.00
77685;BME280;66844;46.092;18.268;2024-02-26T02:22:41;98368.53;;;8.47;100.00
77685;BME280;66844;46.092;18.268;2024-02-26T02:23:13;98362.41;;;8.47;100.00
77685;BME280;66844;46.092;18.268;2024-02-26T02:23:45;98367.69;;;8.47;100.00
77685;BME280;66844;46.092;18.268;2024-02-26T02:24:18;98367.06;;;8.43;100.00
77685;BME280;66844;46.092;18.268;2024-02-26T02:24:52;98368.75;;;8.44;100.00
77685;BME280;66844;46.092;18.268;2024-02-26T02:25:24;98368.63;;;8.46;100.00
77685;BME280;66844;46.092;18.268;2024-02-26T02:25:57;98361.53;;;8.46;100.00
77685;BME280;66844;46.092;18.268;2024-02-26T02:26:30;98371.19;;;8.47;100.00
77685;BME280;66844;46.092;18.268;2024-02-26T02:27:02;98370.44;;;8.45;100.00
77685;BME280;66844;46.092;18.268;2024-02-26T02:27:35;98374.69;;;8.48;100.00
77685;BME280;66844;46.092;18.268;2024-02-26T02:28:07;98364.97;;;8.48;100.00
77685;BME280;66844;46.092;18.268;2024-02-26T02:28:39;98372.06;;;8.48;100.00
77685;BME280;66844;46.092;18.268;2024-02-26T02:29:12;98368.53;;;8.47;100.00
77685;BME280;66844;46.092;18.268;2024-02-26T02:29:45;98366.63;;;8.49;100.00
77685;BME280;66844;46.092;18.268;2024-02-26T02:30:17;98363.25;;;8.47;100.00
77685;BME280;66844;46.092;18.268;2024-02-26T02:30:49;98365.13;;;8.45;100.00
77685;BME280;66844;46.092;18.268;2024-02-26T02:31:21;98372.34;;;8.43;100.00
77685;BME280;66844;46.092;18.268;2024-02-26T02:31:53;98366.19;;;8.43;100.00
77685;BME280;66844;46.092;18.268;2024-02-26T02:32:26;98367.78;;;8.45;100.00
77685;BME280;66844;46.092;18.268;2024-02-26T02:32:59;98363.25;;;8.47;100.00
77685;BME280;66844;46.092;18.268;2024-02-26T02:33:33;98367.78;;;8.45;100.00
77685;BME280;66844;46.092;18.268;2024-02-26T02:34:05;98365.91;;;8.47;100.00
77685;BME280;66844;46.092;18.268;2024-02-26T02:34:38;98366.75;;;8.48;100.00
77685;BME280;66844;46.092;18.268;2024-02-26T02:35:10;98373.00;;;8.47;100.00
77685;BME280;66844;46.092;18.268;2024-02-26T02:35:42;98373.09;;;8.45;100.00
77685;BME280;66844;46.092;18.268;2024-02-26T02:36:14;98373.22;;;8.44;100.00
77685;BME280;66844;46.092;18.268;2024-02-26T02:36:52;98368.84;;;8.43;100.00
77685;BME280;66844;46.092;18.268;2024-02-26T02:37:25;98368.94;;;8.41;100.00
77685;BME280;66844;46.092;18.268;2024-02-26T02:37:57;98377.66;;;8.43;100.00
77685;BME280;66844;46.092;18.268;2024-02-26T02:38:29;98376.59;;;8.46;100.00
77685;BME280;66844;46.092;18.268;2024-02-26T02:39:03;98373.09;;;8.45;100.00
77685;BME280;66844;46.092;18.268;2024-02-26T02:39:35;98373.94;;;8.46;100.00
77685;BME280;66844;46.092;18.268;2024-02-26T02:40:07;98377.44;;;8.46;100.00
77685;BME280;66844;46.092;18.268;2024-02-26T02:40:39;98376.38;;;8.49;100.00
77685;BME280;66844;46.092;18.268;2024-02-26T02:41:11;98378.22;;;8.48;100.00
77685;BME280;66844;46.092;18.268;2024-02-26T02:41:43;98374.50;;;8.51;100.00
77685;BME280;66844;46.092;18.268;2024-02-26T02:42:15;98374.50;;;8.51;100.00
77685;BME280;66844;46.092;18.268;2024-02-26T02:42:47;98370.03;;;8.51;100.00
77685;BME280;66844;46.092;18.268;2024-02-26T02:43:19;98375.44;;;8.50;100.00
77685;BME280;66844;46.092;18.268;2024-02-26T02:43:51;98370.13;;;8.50;100.00
77685;BME280;66844;46.092;18.268;2024-02-26T02:44:23;98369.19;;;8.51;100.00
77685;BME280;66844;46.092;18.268;2024-02-26T02:44:55;98369.19;;;8.51;100.00
77685;BME280;66844;46.092;18.268;2024-02-26T02:45:28;98371.84;;;8.51;100.00
77685;BME280;66844;46.092;18.268;2024-02-26T02:46:00;98374.50;;;8.51;100.00
77685;BME280;66844;46.092;18.268;2024-02-26T02:46:32;98368.34;;;8.50;100.00
77685;BME280;66844;46.092;18.268;2024-02-26T02:47:05;98371.00;;;8.50;100.00
77685;BME280;66844;46.092;18.268;2024-02-26T02:47:37;98370.03;;;8.51;100.00
77685;BME280;66844;46.092;18.268;2024-02-26T02:48:12;98371.00;;;8.50;100.00
77685;BME280;66844;46.092;18.268;2024-02-26T02:48:44;98365.69;;;8.50;100.00
77685;BME280;66844;46.092;18.268;2024-02-26T02:49:16;98370.03;;;8.51;100.00
77685;BME280;66844;46.092;18.268;2024-02-26T02:49:48;98374.41;;;8.52;100.00